sensor_id;sensor_type;location;lat;lon;timestamp;P1;durP1;ratioP1;P2;durP2;ratioP2
72127;SDS011;60000;51.030;7.024;2023-02-28T00:00:41;3.10;;;0.90;;
72127;SDS011;60000;51.030;7.024;2023-02-28T00:03:06;3.30;;;0.90;;
72127;SDS011;60000;51.030;7.024;2023-02-28T00:05:32;3.57;;;0.97;;
72127;SDS011;60000;51.030;7.024;2023-02-28T00:07:57;2.92;;;0.85;;
72127;SDS011;60000;51.030;7.024;2023-02-28T00:10:25;3.10;;;0.80;;
72127;SDS011;60000;51.030;7.024;2023-02-28T00:12:55;3.57;;;0.97;;
72127;SDS011;60000;51.030;7.024;2023-02-28T00:15:24;4.57;;;1.20;;
72127;SDS011;60000;51.030;7.024;2023-02-28T00:17:49;4.10;;;1.20;;
72127;SDS011;60000;51.030;7.024;2023-02-28T00:20:15;4.00;;;1.50;;
72127;SDS011;60000;51.030;7.024;2023-02-28T00:22:42;4.05;;;1.20;;
72127;SDS011;60000;51.030;7.024;2023-02-28T00:25:10;3.93;;;1.20;;
72127;SDS011;60000;51.030;7.024;2023-02-28T00:27:36;3.55;;;1.20;;
72127;SDS011;60000;51.030;7.024;2023-02-28T00:30:03;5.47;;;1.20;;
72127;SDS011;60000;51.030;7.024;2023-02-28T00:32:30;5.40;;;1.48;;
72127;SDS011;60000;51.030;7.024;2023-02-28T00:34:56;5.17;;;1.13;;
72127;SDS011;60000;51.030;7.024;2023-02-28T00:37:22;3.95;;;1.10;;
72127;SDS011;60000;51.030;7.024;2023-02-28T00:39:47;5.30;;;1.30;;
72127;SDS011;60000;51.030;7.024;2023-02-28T00:42:13;4.22;;;1.00;;
72127;SDS011;60000;51.030;7.024;2023-02-28T00:44:38;4.57;;;1.10;;
72127;SDS011;60000;51.030;7.024;2023-02-28T00:47:04;4.33;;;1.10;;
72127;SDS011;60000;51.030;7.024;2023-02-28T00:49:29;3.35;;;0.80;;
72127;SDS011;60000;51.030;7.024;2023-02-28T00:51:55;4.80;;;1.27;;
72127;SDS011;60000;51.030;7.024;2023-02-28T00:54:21;4.23;;;1.10;;
72127;SDS011;60000;51.030;7.024;2023-02-28T00:56:47;4.13;;;1.00;;
72127;SDS011;60000;51.030;7.024;2023-02-28T00:59:13;4.43;;;1.10;;
72127;SDS011;60000;51.030;7.024;2023-02-28T01:01:40;3.93;;;1.17;;
72127;SDS011;60000;51.030;7.024;2023-02-28T01:04:05;3.40;;;1.10;;
72127;SDS011;60000;51.030;7.024;2023-02-28T01:06:31;6.87;;;1.30;;
72127;SDS011;60000;51.030;7.024;2023-02-28T01:08:57;3.35;;;1.00;;
72127;SDS011;60000;51.030;7.024;2023-02-28T01:11:23;3.97;;;0.90;;
72127;SDS011;60000;51.030;7.024;2023-02-28T01:13:49;5.17;;;1.50;;
72127;SDS011;60000;51.030;7.024;2023-02-28T01:16:17;3.72;;;1.00;;
72127;SDS011;60000;51.030;7.024;2023-02-28T01:18:43;4.87;;;1.20;;
72127;SDS011;60000;51.030;7.024;2023-02-28T01:21:10;3.60;;;1.15;;
72127;SDS011;60000;51.030;7.024;2023-02-28T01:23:38;4.07;;;1.05;;
72127;SDS011;60000;51.030;7.024;2023-02-28T01:26:07;3.65;;;1.00;;
72127;SDS011;60000;51.030;7.024;2023-02-28T01:28:35;3.93;;;1.27;;
72127;SDS011;60000;51.030;7.024;2023-02-28T01:31:00;5.40;;;1.20;;
72127;SDS011;60000;51.030;7.024;2023-02-28T01:33:26;3.70;;;1.10;;
72127;SDS011;60000;51.030;7.024;2023-02-28T01:36:02;5.93;;;1.00;;
72127;SDS011;60000;51.030;7.024;2023-02-28T01:38:30;4.97;;;1.00;;
72127;SDS011;60000;51.030;7.024;2023-02-28T01:40:56;5.20;;;1.05;;
72127;SDS011;60000;51.030;7.024;2023-02-28T01:43:22;2.87;;;0.80;;
72127;SDS011;60000;51.030;7.024;2023-02-28T01:45:50;2.25;;;0.70;;
72127;SDS011;60000;51.030;7.024;2023-02-28T01:48:16;3.15;;;0.90;;
72127;SDS011;60000;51.030;7.024;2023-02-28T01:50:43;4.55;;;1.00;;
72127;SDS011;60000;51.030;7.024;2023-02-28T01:53:11;4.97;;;1.00;;
72127;SDS011;60000;51.030;7.024;2023-02-28T01:55:41;4.57;;;0.90;;
72127;SDS011;60000;51.030;7.024;2023-02-28T01:58:11;3.15;;;0.80;;
72127;SDS011;60000;51.030;7.024;2023-02-28T02:00:36;4.53;;;0.97;;
72127;SDS011;60000;51.030;7.024;2023-02-28T02:03:08;3.53;;;1.00;;
72127;SDS011;60000;51.030;7.024;2023-02-28T02:05:36;4.60;;;1.20;;
72127;SDS011;60000;51.030;7.024;2023-02-28T02:08:04;3.93;;;1.30;;
72127;SDS011;60000;51.030;7.024;2023-02-28T02:10:45;4.22;;;1.45;;
72127;SDS011;60000;51.030;7.024;2023-02-28T02:18:41;3.55;;;1.10;;
72127;SDS011;60000;51.030;7.024;2023-02-28T02:30:29;6.10;;;1.40;;
72127;SDS011;60000;51.030;7.024;2023-02-28T02:36:00;4.37;;;1.27;;
72127;SDS011;60000;51.030;7.024;2023-02-28T02:41:22;4.20;;;0.88;;
72127;SDS011;60000;51.030;7.024;2023-02-28T02:43:53;4.10;;;1.13;;
72127;SDS011;60000;51.030;7.024;2023-02-28T02:46:41;3.33;;;0.95;;
72127;SDS011;60000;51.030;7.024;2023-02-28T02:49:10;4.00;;;1.30;;
72127;SDS011;60000;51.030;7.024;2023-02-28T02:51:40;4.43;;;1.27;;
72127;SDS011;60000;51.030;7.024;2023-02-28T02:54:15;3.72;;;1.13;;
72127;SDS011;60000;51.030;7.024;2023-02-28T02:56:47;4.53;;;1.42;;
72127;SDS011;60000;51.030;7.024;2023-02-28T02:59:16;4.90;;;1.10;;
72127;SDS011;60000;51.030;7.024;2023-02-28T03:01:46;4.20;;;1.20;;
72127;SDS011;60000;51.030;7.024;2023-02-28T03:04:19;4.35;;;1.23;;
72127;SDS011;60000;51.030;7.024;2023-02-28T03:06:46;4.28;;;1.10;;
72127;SDS011;60000;51.030;7.024;2023-02-28T03:09:11;2.50;;;0.90;;
72127;SDS011;60000;51.030;7.024;2023-02-28T03:11:37;2.83;;;0.77;;
72127;SDS011;60000;51.030;7.024;2023-02-28T03:14:20;4.33;;;1.47;;
72127;SDS011;60000;51.030;7.024;2023-02-28T03:22:52;3.20;;;0.90;;
72127;SDS011;60000;51.030;7.024;2023-02-28T03:28:15;4.23;;;1.10;;
72127;SDS011;60000;51.030;7.024;2023-02-28T03:33:19;4.57;;;1.40;;
72127;SDS011;60000;51.030;7.024;2023-02-28T03:35:53;6.03;;;1.10;;
72127;SDS011;60000;51.030;7.024;2023-02-28T03:38:24;4.35;;;1.35;;
72127;SDS011;60000;51.030;7.024;2023-02-28T03:40:54;3.63;;;1.20;;
72127;SDS011;60000;51.030;7.024;2023-02-28T03:43:26;5.95;;;1.48;;
72127;SDS011;60000;51.030;7.024;2023-02-28T03:45:54;4.68;;;1.50;;
72127;SDS011;60000;51.030;7.024;2023-02-28T03:48:22;4.15;;;1.35;;
72127;SDS011;60000;51.030;7.024;2023-02-28T03:50:53;4.60;;;1.40;;
72127;SDS011;60000;51.030;7.024;2023-02-28T03:53:30;4.53;;;1.17;;
72127;SDS011;60000;51.030;7.024;2023-02-28T03:55:59;4.05;;;1.10;;
72127;SDS011;60000;51.030;7.024;2023-02-28T03:58:38;4.03;;;1.40;;
72127;SDS011;60000;51.030;7.024;2023-02-28T04:03:45;3.70;;;1.17;;
72127;SDS011;60000;51.030;7.024;2023-02-28T04:06:15;5.13;;;1.27;;
72127;SDS011;60000;51.030;7.024;2023-02-28T04:08:42;4.20;;;1.00;;
72127;SDS011;60000;51.030;7.024;2023-02-28T04:11:51;4.18;;;1.20;;
72127;SDS011;60000;51.030;7.024;2023-02-28T04:14:04;4.87;;;1.47;;
72127;SDS011;60000;51.030;7.024;2023-02-28T04:16:32;3.60;;;1.10;;
72127;SDS011;60000;51.030;7.024;2023-02-28T04:18:58;5.38;;;1.60;;
72127;SDS011;60000;51.030;7.024;2023-02-28T04:21:26;5.30;;;1.50;;
72127;SDS011;60000;51.030;7.024;2023-02-28T04:23:53;5.57;;;1.70;;
72127;SDS011;60000;51.030;7.024;2023-02-28T04:26:18;5.07;;;1.50;;
72127;SDS011;60000;51.030;7.024;2023-02-28T04:28:43;4.87;;;1.40;;
72127;SDS011;60000;51.030;7.024;2023-02-28T04:31:09;4.33;;;1.30;;
72127;SDS011;60000;51.030;7.024;2023-02-28T04:33:34;5.07;;;1.50;;
72127;SDS011;60000;51.030;7.024;2023-02-28T04:36:00;5.32;;;1.58;;
72127;SDS011;60000;51.030;7.024;2023-02-28T04:38:33;4.30;;;1.13;;
72127;SDS011;60000;51.030;7.024;2023-02-28T04:41:03;5.22;;;1.50;;
72127;SDS011;60000;51.030;7.024;2023-02-28T04:43:29;4.32;;;1.33;;
72127;SDS011;60000;51.030;7.024;2023-02-28T04:45:55;6.38;;;1.60;;
72127;SDS011;60000;51.030;7.024;2023-02-28T04:48:23;6.23;;;1.50;;
72127;SDS011;60000;51.030;7.024;2023-02-28T04:50:49;4.32;;;1.48;;
72127;SDS011;60000;51.030;7.024;2023-02-28T04:53:14;7.22;;;1.77;;
72127;SDS011;60000;51.030;7.024;2023-02-28T04:55:40;3.50;;;1.30;;
72127;SDS011;60000;51.030;7.024;2023-02-28T04:58:05;4.35;;;1.58;;
72127;SDS011;60000;51.030;7.024;2023-02-28T05:00:30;4.67;;;1.20;;
72127;SDS011;60000;51.030;7.024;2023-02-28T05:02:56;4.63;;;1.30;;
72127;SDS011;60000;51.030;7.024;2023-02-28T05:05:21;5.03;;;1.50;;
72127;SDS011;60000;51.030;7.024;2023-02-28T05:07:46;4.47;;;1.50;;
72127;SDS011;60000;51.030;7.024;2023-02-28T05:10:12;4.33;;;1.40;;
72127;SDS011;60000;51.030;7.024;2023-02-28T05:12:37;5.53;;;1.30;;
72127;SDS011;60000;51.030;7.024;2023-02-28T05:15:03;4.32;;;1.27;;
72127;SDS011;60000;51.030;7.024;2023-02-28T05:17:30;4.35;;;1.05;;
72127;SDS011;60000;51.030;7.024;2023-02-28T05:19:55;4.63;;;1.30;;
72127;SDS011;60000;51.030;7.024;2023-02-28T05:22:21;6.27;;;1.67;;
72127;SDS011;60000;51.030;7.024;2023-02-28T05:24:46;4.80;;;1.58;;
72127;SDS011;60000;51.030;7.024;2023-02-28T05:27:11;5.73;;;1.40;;
72127;SDS011;60000;51.030;7.024;2023-02-28T05:29:37;4.83;;;1.53;;
72127;SDS011;60000;51.030;7.024;2023-02-28T05:32:10;4.00;;;1.20;;
72127;SDS011;60000;51.030;7.024;2023-02-28T05:34:37;5.60;;;1.60;;
72127;SDS011;60000;51.030;7.024;2023-02-28T05:37:03;6.40;;;1.50;;
72127;SDS011;60000;51.030;7.024;2023-02-28T05:39:29;4.88;;;1.40;;
72127;SDS011;60000;51.030;7.024;2023-02-28T05:41:55;4.83;;;1.47;;
72127;SDS011;60000;51.030;7.024;2023-02-28T05:44:20;5.30;;;1.53;;
72127;SDS011;60000;51.030;7.024;2023-02-28T05:46:45;5.53;;;1.80;;
72127;SDS011;60000;51.030;7.024;2023-02-28T05:49:11;5.00;;;1.58;;
72127;SDS011;60000;51.030;7.024;2023-02-28T05:51:36;5.13;;;1.73;;
72127;SDS011;60000;51.030;7.024;2023-02-28T05:54:04;6.10;;;1.67;;
72127;SDS011;60000;51.030;7.024;2023-02-28T05:56:30;5.37;;;1.50;;
72127;SDS011;60000;51.030;7.024;2023-02-28T05:58:56;4.00;;;1.15;;
72127;SDS011;60000;51.030;7.024;2023-02-28T06:01:43;4.50;;;1.40;;
72127;SDS011;60000;51.030;7.024;2023-02-28T06:04:15;4.85;;;1.30;;
72127;SDS011;60000;51.030;7.024;2023-02-28T06:06:44;6.07;;;1.40;;
72127;SDS011;60000;51.030;7.024;2023-02-28T06:09:10;4.15;;;1.20;;
72127;SDS011;60000;51.030;7.024;2023-02-28T06:11:36;4.40;;;1.03;;
72127;SDS011;60000;51.030;7.024;2023-02-28T06:14:02;3.67;;;1.13;;
72127;SDS011;60000;51.030;7.024;2023-02-28T06:16:28;4.18;;;1.20;;
72127;SDS011;60000;51.030;7.024;2023-02-28T06:18:56;4.93;;;1.33;;
72127;SDS011;60000;51.030;7.024;2023-02-28T06:21:22;5.10;;;1.60;;
72127;SDS011;60000;51.030;7.024;2023-02-28T06:23:48;5.33;;;1.37;;
72127;SDS011;60000;51.030;7.024;2023-02-28T06:26:13;6.20;;;1.23;;
72127;SDS011;60000;51.030;7.024;2023-02-28T06:28:39;5.13;;;1.57;;
72127;SDS011;60000;51.030;7.024;2023-02-28T06:31:11;4.00;;;1.10;;
72127;SDS011;60000;51.030;7.024;2023-02-28T06:33:38;5.07;;;1.40;;
72127;SDS011;60000;51.030;7.024;2023-02-28T06:36:05;4.28;;;1.48;;
72127;SDS011;60000;51.030;7.024;2023-02-28T06:38:31;5.05;;;1.52;;
72127;SDS011;60000;51.030;7.024;2023-02-28T06:40:58;5.18;;;1.42;;
72127;SDS011;60000;51.030;7.024;2023-02-28T06:43:25;6.03;;;1.75;;
72127;SDS011;60000;51.030;7.024;2023-02-28T06:45:59;5.97;;;1.43;;
72127;SDS011;60000;51.030;7.024;2023-02-28T06:48:27;5.97;;;1.50;;
72127;SDS011;60000;51.030;7.024;2023-02-28T06:51:01;6.50;;;1.80;;
72127;SDS011;60000;51.030;7.024;2023-02-28T06:53:28;5.25;;;1.50;;
72127;SDS011;60000;51.030;7.024;2023-02-28T06:55:53;5.87;;;1.77;;
72127;SDS011;60000;51.030;7.024;2023-02-28T06:58:18;5.60;;;1.77;;
72127;SDS011;60000;51.030;7.024;2023-02-28T07:00:44;5.87;;;1.43;;
72127;SDS011;60000;51.030;7.024;2023-02-28T07:03:10;5.88;;;1.70;;
72127;SDS011;60000;51.030;7.024;2023-02-28T07:05:37;5.10;;;1.58;;
72127;SDS011;60000;51.030;7.024;2023-02-28T07:08:03;4.73;;;1.50;;
72127;SDS011;60000;51.030;7.024;2023-02-28T07:10:30;7.18;;;1.58;;
72127;SDS011;60000;51.030;7.024;2023-02-28T07:12:55;7.00;;;1.40;;
72127;SDS011;60000;51.030;7.024;2023-02-28T07:15:20;4.97;;;1.40;;
72127;SDS011;60000;51.030;7.024;2023-02-28T07:17:46;5.17;;;1.33;;
72127;SDS011;60000;51.030;7.024;2023-02-28T07:20:11;4.83;;;1.47;;
72127;SDS011;60000;51.030;7.024;2023-02-28T07:22:37;3.90;;;1.13;;
72127;SDS011;60000;51.030;7.024;2023-02-28T07:25:03;3.30;;;1.05;;
72127;SDS011;60000;51.030;7.024;2023-02-28T07:27:29;4.70;;;1.50;;
72127;SDS011;60000;51.030;7.024;2023-02-28T07:29:54;5.13;;;1.37;;
72127;SDS011;60000;51.030;7.024;2023-02-28T07:32:21;4.40;;;1.20;;
72127;SDS011;60000;51.030;7.024;2023-02-28T07:34:47;4.03;;;1.40;;
72127;SDS011;60000;51.030;7.024;2023-02-28T07:37:13;3.72;;;1.08;;
72127;SDS011;60000;51.030;7.024;2023-02-28T07:39:39;3.90;;;1.40;;
72127;SDS011;60000;51.030;7.024;2023-02-28T07:42:07;6.32;;;1.67;;
72127;SDS011;60000;51.030;7.024;2023-02-28T07:44:35;4.55;;;1.38;;
72127;SDS011;60000;51.030;7.024;2023-02-28T07:47:05;4.05;;;1.40;;
72127;SDS011;60000;51.030;7.024;2023-02-28T07:49:31;4.47;;;1.33;;
72127;SDS011;60000;51.030;7.024;2023-02-28T07:51:57;3.95;;;1.23;;
72127;SDS011;60000;51.030;7.024;2023-02-28T07:54:22;6.57;;;1.60;;
72127;SDS011;60000;51.030;7.024;2023-02-28T07:56:47;4.53;;;1.30;;
72127;SDS011;60000;51.030;7.024;2023-02-28T07:59:12;4.87;;;1.60;;
72127;SDS011;60000;51.030;7.024;2023-02-28T08:01:38;4.47;;;1.30;;
72127;SDS011;60000;51.030;7.024;2023-02-28T08:04:03;4.20;;;1.45;;
72127;SDS011;60000;51.030;7.024;2023-02-28T08:06:29;4.82;;;1.52;;
72127;SDS011;60000;51.030;7.024;2023-02-28T08:08:54;4.13;;;1.20;;
72127;SDS011;60000;51.030;7.024;2023-02-28T08:11:21;4.40;;;1.40;;
72127;SDS011;60000;51.030;7.024;2023-02-28T08:13:46;5.28;;;1.50;;
72127;SDS011;60000;51.030;7.024;2023-02-28T08:16:12;4.77;;;1.97;;
72127;SDS011;60000;51.030;7.024;2023-02-28T08:18:42;3.67;;;1.40;;
72127;SDS011;60000;51.030;7.024;2023-02-28T08:21:08;4.60;;;1.50;;
72127;SDS011;60000;51.030;7.024;2023-02-28T08:23:34;4.47;;;1.27;;
72127;SDS011;60000;51.030;7.024;2023-02-28T08:26:00;5.35;;;1.50;;
72127;SDS011;60000;51.030;7.024;2023-02-28T08:28:25;5.47;;;1.50;;
72127;SDS011;60000;51.030;7.024;2023-02-28T08:30:51;4.43;;;1.33;;
72127;SDS011;60000;51.030;7.024;2023-02-28T08:33:16;4.93;;;1.37;;
72127;SDS011;60000;51.030;7.024;2023-02-28T08:35:41;4.20;;;1.40;;
72127;SDS011;60000;51.030;7.024;2023-02-28T08:38:07;3.83;;;1.20;;
72127;SDS011;60000;51.030;7.024;2023-02-28T08:40:32;3.92;;;1.20;;
72127;SDS011;60000;51.030;7.024;2023-02-28T08:42:57;4.82;;;1.50;;
72127;SDS011;60000;51.030;7.024;2023-02-28T08:45:23;5.37;;;1.40;;
72127;SDS011;60000;51.030;7.024;2023-02-28T08:47:48;3.92;;;1.50;;
72127;SDS011;60000;51.030;7.024;2023-02-28T08:50:14;4.05;;;1.60;;
72127;SDS011;60000;51.030;7.024;2023-02-28T08:52:41;5.90;;;1.50;;
72127;SDS011;60000;51.030;7.024;2023-02-28T08:55:08;3.55;;;1.40;;
72127;SDS011;60000;51.030;7.024;2023-02-28T08:57:34;3.53;;;1.30;;
72127;SDS011;60000;51.030;7.024;2023-02-28T08:59:59;3.40;;;1.00;;
72127;SDS011;60000;51.030;7.024;2023-02-28T09:02:26;4.07;;;1.10;;
72127;SDS011;60000;51.030;7.024;2023-02-28T09:04:51;3.50;;;1.27;;
72127;SDS011;60000;51.030;7.024;2023-02-28T09:07:17;5.00;;;1.53;;
72127;SDS011;60000;51.030;7.024;2023-02-28T09:09:42;3.83;;;1.37;;
72127;SDS011;60000;51.030;7.024;2023-02-28T09:12:19;3.85;;;1.20;;
72127;SDS011;60000;51.030;7.024;2023-02-28T09:14:47;3.85;;;1.50;;
72127;SDS011;60000;51.030;7.024;2023-02-28T09:17:13;3.70;;;1.50;;
72127;SDS011;60000;51.030;7.024;2023-02-28T09:19:38;4.33;;;1.70;;
72127;SDS011;60000;51.030;7.024;2023-02-28T09:22:03;4.70;;;1.50;;
72127;SDS011;60000;51.030;7.024;2023-02-28T09:24:29;4.87;;;1.80;;
72127;SDS011;60000;51.030;7.024;2023-02-28T09:26:56;6.03;;;1.63;;
72127;SDS011;60000;51.030;7.024;2023-02-28T09:29:22;4.57;;;1.40;;
72127;SDS011;60000;51.030;7.024;2023-02-28T09:31:47;4.28;;;1.70;;
72127;SDS011;60000;51.030;7.024;2023-02-28T09:34:13;3.67;;;1.40;;
72127;SDS011;60000;51.030;7.024;2023-02-28T09:36:38;6.10;;;1.63;;
72127;SDS011;60000;51.030;7.024;2023-02-28T09:39:03;5.33;;;1.67;;
72127;SDS011;60000;51.030;7.024;2023-02-28T09:41:30;4.30;;;1.60;;
72127;SDS011;60000;51.030;7.024;2023-02-28T09:44:04;4.35;;;1.63;;
72127;SDS011;60000;51.030;7.024;2023-02-28T09:46:37;5.20;;;1.45;;
72127;SDS011;60000;51.030;7.024;2023-02-28T09:49:07;4.22;;;1.63;;
72127;SDS011;60000;51.030;7.024;2023-02-28T09:51:48;4.53;;;1.58;;
72127;SDS011;60000;51.030;7.024;2023-02-28T09:54:27;4.80;;;1.60;;
72127;SDS011;60000;51.030;7.024;2023-02-28T10:05:29;4.30;;;1.50;;
72127;SDS011;60000;51.030;7.024;2023-02-28T10:10:41;3.22;;;1.50;;
72127;SDS011;60000;51.030;7.024;2023-02-28T10:16:01;6.05;;;1.40;;
72127;SDS011;60000;51.030;7.024;2023-02-28T10:21:16;3.63;;;1.45;;
72127;SDS011;60000;51.030;7.024;2023-02-28T10:23:45;5.68;;;1.33;;
72127;SDS011;60000;51.030;7.024;2023-02-28T10:26:13;3.88;;;1.40;;
72127;SDS011;60000;51.030;7.024;2023-02-28T10:28:41;3.83;;;1.40;;
72127;SDS011;60000;51.030;7.024;2023-02-28T10:31:52;3.28;;;1.25;;
72127;SDS011;60000;51.030;7.024;2023-02-28T10:34:06;3.28;;;1.45;;
72127;SDS011;60000;51.030;7.024;2023-02-28T10:36:32;5.55;;;2.20;;
72127;SDS011;60000;51.030;7.024;2023-02-28T10:38:58;3.95;;;1.40;;
72127;SDS011;60000;51.030;7.024;2023-02-28T10:41:29;3.73;;;1.40;;
72127;SDS011;60000;51.030;7.024;2023-02-28T10:44:19;3.38;;;1.25;;
72127;SDS011;60000;51.030;7.024;2023-02-28T10:46:48;4.05;;;1.50;;
72127;SDS011;60000;51.030;7.024;2023-02-28T10:49:20;4.63;;;1.50;;
72127;SDS011;60000;51.030;7.024;2023-02-28T10:51:54;3.80;;;1.40;;
72127;SDS011;60000;51.030;7.024;2023-02-28T10:54:23;5.03;;;1.57;;
72127;SDS011;60000;51.030;7.024;2023-02-28T10:59:40;4.40;;;1.50;;
72127;SDS011;60000;51.030;7.024;2023-02-28T11:02:28;4.50;;;1.70;;
72127;SDS011;60000;51.030;7.024;2023-02-28T11:04:58;4.82;;;1.60;;
72127;SDS011;60000;51.030;7.024;2023-02-28T11:07:23;4.33;;;1.50;;
72127;SDS011;60000;51.030;7.024;2023-02-28T11:09:51;5.03;;;1.73;;
72127;SDS011;60000;51.030;7.024;2023-02-28T11:12:22;4.28;;;1.45;;
72127;SDS011;60000;51.030;7.024;2023-02-28T11:14:58;4.57;;;1.70;;
72127;SDS011;60000;51.030;7.024;2023-02-28T11:17:27;4.63;;;1.65;;
72127;SDS011;60000;51.030;7.024;2023-02-28T11:19:59;4.20;;;1.45;;
72127;SDS011;60000;51.030;7.024;2023-02-28T11:22:29;5.75;;;1.73;;
72127;SDS011;60000;51.030;7.024;2023-02-28T11:24:59;6.03;;;1.92;;
72127;SDS011;60000;51.030;7.024;2023-02-28T11:29:55;4.70;;;1.70;;
72127;SDS011;60000;51.030;7.024;2023-02-28T11:32:22;4.47;;;1.70;;
72127;SDS011;60000;51.030;7.024;2023-02-28T11:37:34;5.30;;;2.05;;
72127;SDS011;60000;51.030;7.024;2023-02-28T11:40:01;4.57;;;1.90;;
72127;SDS011;60000;51.030;7.024;2023-02-28T11:42:39;5.10;;;2.08;;
72127;SDS011;60000;51.030;7.024;2023-02-28T11:45:32;5.53;;;1.90;;
72127;SDS011;60000;51.030;7.024;2023-02-28T11:48:21;4.80;;;1.65;;
72127;SDS011;60000;51.030;7.024;2023-02-28T11:53:46;4.57;;;1.70;;
72127;SDS011;60000;51.030;7.024;2023-02-28T11:56:39;5.90;;;1.73;;
72127;SDS011;60000;51.030;7.024;2023-02-28T12:10:09;5.03;;;1.70;;
72127;SDS011;60000;51.030;7.024;2023-02-28T12:15:56;4.40;;;1.70;;
72127;SDS011;60000;51.030;7.024;2023-02-28T12:18:50;5.32;;;1.95;;
72127;SDS011;60000;51.030;7.024;2023-02-28T12:26:42;5.18;;;2.10;;
72127;SDS011;60000;51.030;7.024;2023-02-28T12:29:24;4.97;;;1.85;;
72127;SDS011;60000;51.030;7.024;2023-02-28T12:31:59;4.70;;;2.03;;
72127;SDS011;60000;51.030;7.024;2023-02-28T12:34:45;4.40;;;1.57;;
72127;SDS011;60000;51.030;7.024;2023-02-28T12:37:16;5.07;;;1.90;;
72127;SDS011;60000;51.030;7.024;2023-02-28T12:39:48;6.05;;;2.03;;
72127;SDS011;60000;51.030;7.024;2023-02-28T12:42:24;7.03;;;1.95;;
72127;SDS011;60000;51.030;7.024;2023-02-28T12:45:04;5.68;;;1.98;;
72127;SDS011;60000;51.030;7.024;2023-02-28T12:47:36;5.80;;;1.63;;
72127;SDS011;60000;51.030;7.024;2023-02-28T12:50:06;5.03;;;1.90;;
72127;SDS011;60000;51.030;7.024;2023-02-28T12:57:48;5.07;;;1.90;;
72127;SDS011;60000;51.030;7.024;2023-02-28T13:00:20;5.63;;;1.90;;
72127;SDS011;60000;51.030;7.024;2023-02-28T13:11:46;5.83;;;2.10;;
72127;SDS011;60000;51.030;7.024;2023-02-28T13:14:19;4.93;;;1.77;;
72127;SDS011;60000;51.030;7.024;2023-02-28T13:20:14;5.88;;;1.95;;
72127;SDS011;60000;51.030;7.024;2023-02-28T13:22:43;4.90;;;1.60;;
72127;SDS011;60000;51.030;7.024;2023-02-28T13:27:48;4.95;;;1.95;;
72127;SDS011;60000;51.030;7.024;2023-02-28T13:33:32;4.85;;;1.85;;
72127;SDS011;60000;51.030;7.024;2023-02-28T13:36:09;5.18;;;2.05;;
72127;SDS011;60000;51.030;7.024;2023-02-28T13:38:39;5.23;;;2.00;;
72127;SDS011;60000;51.030;7.024;2023-02-28T13:43:59;6.03;;;2.20;;
72127;SDS011;60000;51.030;7.024;2023-02-28T13:46:27;5.40;;;1.80;;
72127;SDS011;60000;51.030;7.024;2023-02-28T13:48:53;5.55;;;1.80;;
72127;SDS011;60000;51.030;7.024;2023-02-28T13:52:20;5.03;;;1.92;;
72127;SDS011;60000;51.030;7.024;2023-02-28T13:57:17;4.57;;;2.30;;
72127;SDS011;60000;51.030;7.024;2023-02-28T14:05:38;5.47;;;1.80;;
72127;SDS011;60000;51.030;7.024;2023-02-28T14:08:05;5.40;;;2.33;;
72127;SDS011;60000;51.030;7.024;2023-02-28T14:15:56;5.20;;;1.90;;
72127;SDS011;60000;51.030;7.024;2023-02-28T14:18:31;4.60;;;2.00;;
72127;SDS011;60000;51.030;7.024;2023-02-28T14:21:01;5.75;;;2.03;;
72127;SDS011;60000;51.030;7.024;2023-02-28T14:23:55;5.80;;;2.20;;
72127;SDS011;60000;51.030;7.024;2023-02-28T14:32:03;5.35;;;1.80;;
72127;SDS011;60000;51.030;7.024;2023-02-28T14:37:15;5.00;;;2.17;;
72127;SDS011;60000;51.030;7.024;2023-02-28T14:39:45;5.40;;;2.20;;
72127;SDS011;60000;51.030;7.024;2023-02-28T14:44:57;6.78;;;2.33;;
72127;SDS011;60000;51.030;7.024;2023-02-28T14:47:23;5.15;;;1.88;;
72127;SDS011;60000;51.030;7.024;2023-02-28T14:49:52;6.03;;;2.47;;
72127;SDS011;60000;51.030;7.024;2023-02-28T14:52:19;6.03;;;2.13;;
72127;SDS011;60000;51.030;7.024;2023-02-28T14:54:51;4.55;;;1.65;;
72127;SDS011;60000;51.030;7.024;2023-02-28T14:57:25;4.03;;;1.70;;
72127;SDS011;60000;51.030;7.024;2023-02-28T15:02:41;5.75;;;2.17;;
72127;SDS011;60000;51.030;7.024;2023-02-28T15:07:41;5.07;;;2.20;;
72127;SDS011;60000;51.030;7.024;2023-02-28T15:10:24;4.95;;;1.60;;
72127;SDS011;60000;51.030;7.024;2023-02-28T15:12:54;4.90;;;1.90;;
72127;SDS011;60000;51.030;7.024;2023-02-28T15:21:17;4.47;;;1.83;;
72127;SDS011;60000;51.030;7.024;2023-02-28T15:23:49;4.97;;;2.20;;
72127;SDS011;60000;51.030;7.024;2023-02-28T15:26:19;4.90;;;1.98;;
72127;SDS011;60000;51.030;7.024;2023-02-28T15:28:48;6.10;;;2.35;;
72127;SDS011;60000;51.030;7.024;2023-02-28T15:31:27;6.33;;;2.70;;
72127;SDS011;60000;51.030;7.024;2023-02-28T15:34:04;7.10;;;3.03;;
72127;SDS011;60000;51.030;7.024;2023-02-28T15:36:32;9.60;;;3.90;;
72127;SDS011;60000;51.030;7.024;2023-02-28T15:39:02;6.10;;;2.30;;
72127;SDS011;60000;51.030;7.024;2023-02-28T15:41:42;5.85;;;2.45;;
72127;SDS011;60000;51.030;7.024;2023-02-28T15:44:14;5.93;;;2.50;;
72127;SDS011;60000;51.030;7.024;2023-02-28T15:46:55;5.20;;;2.20;;
72127;SDS011;60000;51.030;7.024;2023-02-28T15:49:22;14.63;;;6.87;;
72127;SDS011;60000;51.030;7.024;2023-02-28T15:51:49;16.75;;;10.88;;
72127;SDS011;60000;51.030;7.024;2023-02-28T15:54:21;29.40;;;17.83;;
72127;SDS011;60000;51.030;7.024;2023-02-28T15:56:52;17.50;;;9.90;;
72127;SDS011;60000;51.030;7.024;2023-02-28T15:59:21;11.25;;;5.85;;
72127;SDS011;60000;51.030;7.024;2023-02-28T16:04:34;6.00;;;2.67;;
72127;SDS011;60000;51.030;7.024;2023-02-28T16:07:01;6.77;;;3.30;;
72127;SDS011;60000;51.030;7.024;2023-02-28T16:09:31;8.10;;;3.40;;
72127;SDS011;60000;51.030;7.024;2023-02-28T16:11:59;6.57;;;2.90;;
72127;SDS011;60000;51.030;7.024;2023-02-28T16:14:29;6.97;;;3.20;;
72127;SDS011;60000;51.030;7.024;2023-02-28T16:17:05;7.82;;;4.05;;
72127;SDS011;60000;51.030;7.024;2023-02-28T16:19:38;8.98;;;4.95;;
72127;SDS011;60000;51.030;7.024;2023-02-28T16:22:04;6.80;;;3.60;;
72127;SDS011;60000;51.030;7.024;2023-02-28T16:24:29;6.80;;;3.17;;
72127;SDS011;60000;51.030;7.024;2023-02-28T16:26:54;8.20;;;4.33;;
72127;SDS011;60000;51.030;7.024;2023-02-28T16:29:26;7.10;;;3.40;;
72127;SDS011;60000;51.030;7.024;2023-02-28T16:31:55;6.97;;;3.30;;
72127;SDS011;60000;51.030;7.024;2023-02-28T16:34:21;5.78;;;2.67;;
72127;SDS011;60000;51.030;7.024;2023-02-28T16:36:47;6.40;;;3.17;;
72127;SDS011;60000;51.030;7.024;2023-02-28T16:39:14;5.47;;;2.67;;
72127;SDS011;60000;51.030;7.024;2023-02-28T16:41:40;5.90;;;2.70;;
72127;SDS011;60000;51.030;7.024;2023-02-28T16:44:09;6.22;;;2.90;;
72127;SDS011;60000;51.030;7.024;2023-02-28T16:46:38;6.28;;;2.60;;
72127;SDS011;60000;51.030;7.024;2023-02-28T16:49:04;5.73;;;2.00;;
72127;SDS011;60000;51.030;7.024;2023-02-28T16:51:29;6.43;;;3.10;;
72127;SDS011;60000;51.030;7.024;2023-02-28T16:53:55;6.18;;;2.50;;
72127;SDS011;60000;51.030;7.024;2023-02-28T16:56:21;6.20;;;2.28;;
72127;SDS011;60000;51.030;7.024;2023-02-28T16:58:48;17.40;;;7.60;;
72127;SDS011;60000;51.030;7.024;2023-02-28T17:01:15;16.05;;;7.55;;
72127;SDS011;60000;51.030;7.024;2023-02-28T17:03:46;8.15;;;3.63;;
72127;SDS011;60000;51.030;7.024;2023-02-28T17:06:16;7.80;;;2.53;;
72127;SDS011;60000;51.030;7.024;2023-02-28T17:08:44;6.28;;;2.17;;
72127;SDS011;60000;51.030;7.024;2023-02-28T17:11:10;5.10;;;1.90;;
72127;SDS011;60000;51.030;7.024;2023-02-28T17:13:35;5.72;;;1.83;;
72127;SDS011;60000;51.030;7.024;2023-02-28T17:16:00;5.55;;;1.95;;
72127;SDS011;60000;51.030;7.024;2023-02-28T17:18:26;6.00;;;2.10;;
72127;SDS011;60000;51.030;7.024;2023-02-28T17:20:53;6.25;;;1.88;;
72127;SDS011;60000;51.030;7.024;2023-02-28T17:23:19;6.47;;;2.20;;
72127;SDS011;60000;51.030;7.024;2023-02-28T17:25:44;6.17;;;2.17;;